高雄國際航空站 - 塔台/地面席

METAR RCKH 051100Z 27006KT 9999 FEW016 BKN250 30/24 Q1007 NOSIG RMK A2975(B)=

站台狀態:Offline
最後更新:2020-07-05 19:00:01